sensor_id;sensor_type;location;lat;lon;timestamp;temperature;humidity
59469;DHT22;45277;52.768;18.262;2022-09-13T00:01:14;6.70;99.90
59469;DHT22;45277;52.768;18.262;2022-09-13T00:02:46;6.70;99.90
59469;DHT22;45277;52.768;18.262;2022-09-13T00:04:17;6.80;99.90
59469;DHT22;45277;52.768;18.262;2022-09-13T00:05:49;6.80;99.90
59469;DHT22;45277;52.768;18.262;2022-09-13T00:07:23;6.70;99.90
59469;DHT22;45277;52.768;18.262;2022-09-13T00:08:55;6.70;99.90
59469;DHT22;45277;52.768;18.262;2022-09-13T00:10:28;6.70;99.90
59469;DHT22;45277;52.768;18.262;2022-09-13T00:11:59;6.70;99.90
59469;DHT22;45277;52.768;18.262;2022-09-13T00:13:31;6.70;99.90
59469;DHT22;45277;52.768;18.262;2022-09-13T00:15:03;6.70;99.90
59469;DHT22;45277;52.768;18.262;2022-09-13T00:16:35;6.70;99.90
59469;DHT22;45277;52.768;18.262;2022-09-13T00:18:07;6.70;99.90
59469;DHT22;45277;52.768;18.262;2022-09-13T00:19:40;6.70;99.90
59469;DHT22;45277;52.768;18.262;2022-09-13T00:21:13;6.60;99.90
59469;DHT22;45277;52.768;18.262;2022-09-13T00:22:45;6.60;99.90
59469;DHT22;45277;52.768;18.262;2022-09-13T00:24:18;6.50;99.90
59469;DHT22;45277;52.768;18.262;2022-09-13T00:25:49;6.40;99.90
59469;DHT22;45277;52.768;18.262;2022-09-13T00:27:21;6.40;99.90
59469;DHT22;45277;52.768;18.262;2022-09-13T00:28:57;6.30;99.90
59469;DHT22;45277;52.768;18.262;2022-09-13T00:30:30;6.30;99.90
59469;DHT22;45277;52.768;18.262;2022-09-13T00:32:08;6.30;99.90
59469;DHT22;45277;52.768;18.262;2022-09-13T00:33:40;6.20;99.90
59469;DHT22;45277;52.768;18.262;2022-09-13T00:35:12;6.20;99.90
59469;DHT22;45277;52.768;18.262;2022-09-13T00:36:45;6.20;99.90
59469;DHT22;45277;52.768;18.262;2022-09-13T00:38:17;6.20;99.90
59469;DHT22;45277;52.768;18.262;2022-09-13T00:39:49;6.10;99.90
59469;DHT22;45277;52.768;18.262;2022-09-13T00:41:21;6.10;99.90
59469;DHT22;45277;52.768;18.262;2022-09-13T00:42:52;6.10;99.90
59469;DHT22;45277;52.768;18.262;2022-09-13T00:48:05;6.00;99.90
59469;DHT22;45277;52.768;18.262;2022-09-13T00:49:39;6.00;99.90
59469;DHT22;45277;52.768;18.262;2022-09-13T00:51:12;6.10;99.90
59469;DHT22;45277;52.768;18.262;2022-09-13T00:52:49;6.00;99.90
59469;DHT22;45277;52.768;18.262;2022-09-13T00:54:25;6.00;99.90
59469;DHT22;45277;52.768;18.262;2022-09-13T00:56:05;6.00;99.90
59469;DHT22;45277;52.768;18.262;2022-09-13T00:57:41;6.00;99.90
59469;DHT22;45277;52.768;18.262;2022-09-13T00:59:38;6.00;99.90
59469;DHT22;45277;52.768;18.262;2022-09-13T01:02:57;6.00;99.90
59469;DHT22;45277;52.768;18.262;2022-09-13T01:04:33;6.10;99.90
59469;DHT22;45277;52.768;18.262;2022-09-13T01:06:21;6.10;99.90
59469;DHT22;45277;52.768;18.262;2022-09-13T01:07:56;6.20;99.90
59469;DHT22;45277;52.768;18.262;2022-09-13T01:09:38;6.20;99.90
59469;DHT22;45277;52.768;18.262;2022-09-13T01:11:46;6.20;99.90
59469;DHT22;45277;52.768;18.262;2022-09-13T01:13:26;6.20;99.90
59469;DHT22;45277;52.768;18.262;2022-09-13T01:15:03;6.30;99.90
59469;DHT22;45277;52.768;18.262;2022-09-13T01:16:35;6.30;99.90
59469;DHT22;45277;52.768;18.262;2022-09-13T01:18:09;6.30;99.90
59469;DHT22;45277;52.768;18.262;2022-09-13T01:19:41;6.30;99.90
59469;DHT22;45277;52.768;18.262;2022-09-13T01:26:02;6.20;99.90
59469;DHT22;45277;52.768;18.262;2022-09-13T01:27:54;6.20;99.90
59469;DHT22;45277;52.768;18.262;2022-09-13T01:30:08;6.20;99.90
59469;DHT22;45277;52.768;18.262;2022-09-13T01:32:03;6.20;99.90
59469;DHT22;45277;52.768;18.262;2022-09-13T01:37:28;6.10;99.90
59469;DHT22;45277;52.768;18.262;2022-09-13T01:39:06;6.20;99.90
59469;DHT22;45277;52.768;18.262;2022-09-13T01:52:10;6.30;99.90
59469;DHT22;45277;52.768;18.262;2022-09-13T01:54:12;6.30;99.90
59469;DHT22;45277;52.768;18.262;2022-09-13T01:56:13;6.20;99.90
59469;DHT22;45277;52.768;18.262;2022-09-13T01:59:50;6.20;99.90
59469;DHT22;45277;52.768;18.262;2022-09-13T02:03:13;6.20;99.90
59469;DHT22;45277;52.768;18.262;2022-09-13T02:04:51;6.20;99.90
59469;DHT22;45277;52.768;18.262;2022-09-13T02:06:31;6.20;99.90
59469;DHT22;45277;52.768;18.262;2022-09-13T02:08:48;6.20;99.90
59469;DHT22;45277;52.768;18.262;2022-09-13T02:10:21;6.20;99.90
59469;DHT22;45277;52.768;18.262;2022-09-13T02:12:04;6.20;99.90
59469;DHT22;45277;52.768;18.262;2022-09-13T02:13:55;6.10;99.90
59469;DHT22;45277;52.768;18.262;2022-09-13T02:15:44;6.10;99.90
59469;DHT22;45277;52.768;18.262;2022-09-13T02:17:23;6.10;99.90
59469;DHT22;45277;52.768;18.262;2022-09-13T02:19:02;6.00;99.90
59469;DHT22;45277;52.768;18.262;2022-09-13T02:20:43;6.00;99.90
59469;DHT22;45277;52.768;18.262;2022-09-13T02:22:20;6.00;99.90
59469;DHT22;45277;52.768;18.262;2022-09-13T02:24:01;6.00;99.90
59469;DHT22;45277;52.768;18.262;2022-09-13T02:25:37;6.00;99.90
59469;DHT22;45277;52.768;18.262;2022-09-13T02:27:14;6.00;99.90
59469;DHT22;45277;52.768;18.262;2022-09-13T02:28:51;6.00;99.90
59469;DHT22;45277;52.768;18.262;2022-09-13T02:30:25;6.00;99.90
59469;DHT22;45277;52.768;18.262;2022-09-13T02:32:11;6.00;99.90
59469;DHT22;45277;52.768;18.262;2022-09-13T02:34:32;6.00;99.90
59469;DHT22;45277;52.768;18.262;2022-09-13T02:35:51;6.00;99.90
59469;DHT22;45277;52.768;18.262;2022-09-13T02:37:25;6.00;99.90
59469;DHT22;45277;52.768;18.262;2022-09-13T02:39:08;6.00;99.90
59469;DHT22;45277;52.768;18.262;2022-09-13T02:40:56;6.00;99.90
59469;DHT22;45277;52.768;18.262;2022-09-13T02:42:43;6.00;99.90
59469;DHT22;45277;52.768;18.262;2022-09-13T02:44:44;5.90;99.90
59469;DHT22;45277;52.768;18.262;2022-09-13T02:46:49;5.90;99.90
59469;DHT22;45277;52.768;18.262;2022-09-13T02:48:57;5.80;99.90
59469;DHT22;45277;52.768;18.262;2022-09-13T02:54:49;5.60;99.90
59469;DHT22;45277;52.768;18.262;2022-09-13T02:58:39;5.60;99.90
59469;DHT22;45277;52.768;18.262;2022-09-13T03:00:13;5.70;99.90
59469;DHT22;45277;52.768;18.262;2022-09-13T03:01:49;5.70;99.90
59469;DHT22;45277;52.768;18.262;2022-09-13T03:03:23;5.80;99.90
59469;DHT22;45277;52.768;18.262;2022-09-13T03:04:58;5.90;99.90
59469;DHT22;45277;52.768;18.262;2022-09-13T03:06:31;5.90;99.90
59469;DHT22;45277;52.768;18.262;2022-09-13T03:08:04;6.00;99.90
59469;DHT22;45277;52.768;18.262;2022-09-13T03:09:50;6.00;99.90
59469;DHT22;45277;52.768;18.262;2022-09-13T03:11:41;6.10;99.90
59469;DHT22;45277;52.768;18.262;2022-09-13T03:17:26;6.20;99.90
59469;DHT22;45277;52.768;18.262;2022-09-13T03:19:05;6.30;99.90
59469;DHT22;45277;52.768;18.262;2022-09-13T03:21:34;6.30;99.90
59469;DHT22;45277;52.768;18.262;2022-09-13T03:23:29;6.20;99.90
59469;DHT22;45277;52.768;18.262;2022-09-13T03:25:15;6.10;99.90
59469;DHT22;45277;52.768;18.262;2022-09-13T03:29:10;6.20;99.90
59469;DHT22;45277;52.768;18.262;2022-09-13T03:30:51;6.30;99.90
59469;DHT22;45277;52.768;18.262;2022-09-13T03:32:35;6.30;99.90
59469;DHT22;45277;52.768;18.262;2022-09-13T03:38:16;6.30;99.90
59469;DHT22;45277;52.768;18.262;2022-09-13T03:41:26;6.30;99.90
59469;DHT22;45277;52.768;18.262;2022-09-13T03:43:29;6.20;99.90
59469;DHT22;45277;52.768;18.262;2022-09-13T03:45:07;6.10;99.90
59469;DHT22;45277;52.768;18.262;2022-09-13T03:46:49;6.10;99.90
59469;DHT22;45277;52.768;18.262;2022-09-13T03:48:24;6.10;99.90
59469;DHT22;45277;52.768;18.262;2022-09-13T03:50:01;6.10;99.90
59469;DHT22;45277;52.768;18.262;2022-09-13T03:51:35;6.10;99.90
59469;DHT22;45277;52.768;18.262;2022-09-13T03:53:10;6.00;99.90
59469;DHT22;45277;52.768;18.262;2022-09-13T03:54:42;6.00;99.90
59469;DHT22;45277;52.768;18.262;2022-09-13T03:56:18;6.00;99.90
59469;DHT22;45277;52.768;18.262;2022-09-13T03:57:50;6.00;99.90
59469;DHT22;45277;52.768;18.262;2022-09-13T03:59:22;6.00;99.90
59469;DHT22;45277;52.768;18.262;2022-09-13T04:00:54;6.00;99.90
59469;DHT22;45277;52.768;18.262;2022-09-13T04:02:26;6.00;99.90
59469;DHT22;45277;52.768;18.262;2022-09-13T04:03:57;6.10;99.90
59469;DHT22;45277;52.768;18.262;2022-09-13T04:05:31;6.10;99.90
59469;DHT22;45277;52.768;18.262;2022-09-13T04:07:06;6.20;99.90
59469;DHT22;45277;52.768;18.262;2022-09-13T04:08:38;6.20;99.90
59469;DHT22;45277;52.768;18.262;2022-09-13T04:10:09;6.20;99.90
59469;DHT22;45277;52.768;18.262;2022-09-13T04:11:42;6.30;99.90
59469;DHT22;45277;52.768;18.262;2022-09-13T04:13:19;6.30;99.90
59469;DHT22;45277;52.768;18.262;2022-09-13T04:15:03;6.30;99.90
59469;DHT22;45277;52.768;18.262;2022-09-13T04:16:35;6.40;99.90
59469;DHT22;45277;52.768;18.262;2022-09-13T04:18:15;6.50;99.90
59469;DHT22;45277;52.768;18.262;2022-09-13T04:19:49;6.60;99.90
59469;DHT22;45277;52.768;18.262;2022-09-13T04:21:27;6.60;99.90
59469;DHT22;45277;52.768;18.262;2022-09-13T04:23:00;6.70;99.90
59469;DHT22;45277;52.768;18.262;2022-09-13T04:24:33;6.70;99.90
59469;DHT22;45277;52.768;18.262;2022-09-13T04:26:04;6.80;99.90
59469;DHT22;45277;52.768;18.262;2022-09-13T04:27:36;6.90;99.90
59469;DHT22;45277;52.768;18.262;2022-09-13T04:29:08;6.90;99.90
59469;DHT22;45277;52.768;18.262;2022-09-13T04:30:46;7.00;99.90
59469;DHT22;45277;52.768;18.262;2022-09-13T04:32:19;7.00;99.90
59469;DHT22;45277;52.768;18.262;2022-09-13T04:33:50;7.10;99.90
59469;DHT22;45277;52.768;18.262;2022-09-13T04:35:22;7.20;99.90
59469;DHT22;45277;52.768;18.262;2022-09-13T04:36:55;7.30;99.90
59469;DHT22;45277;52.768;18.262;2022-09-13T04:38:28;7.30;99.90
59469;DHT22;45277;52.768;18.262;2022-09-13T04:40:03;7.40;99.90
59469;DHT22;45277;52.768;18.262;2022-09-13T04:41:35;7.50;99.90
59469;DHT22;45277;52.768;18.262;2022-09-13T04:43:13;7.60;99.90
59469;DHT22;45277;52.768;18.262;2022-09-13T04:44:45;7.60;99.90
59469;DHT22;45277;52.768;18.262;2022-09-13T04:46:18;7.80;99.90
59469;DHT22;45277;52.768;18.262;2022-09-13T04:47:51;7.90;99.90
59469;DHT22;45277;52.768;18.262;2022-09-13T04:49:27;8.00;99.90
59469;DHT22;45277;52.768;18.262;2022-09-13T04:51:05;8.10;99.90
59469;DHT22;45277;52.768;18.262;2022-09-13T04:52:37;8.20;99.90
59469;DHT22;45277;52.768;18.262;2022-09-13T04:54:16;8.30;99.90
59469;DHT22;45277;52.768;18.262;2022-09-13T04:56:00;8.40;99.90
59469;DHT22;45277;52.768;18.262;2022-09-13T04:57:35;8.60;99.90
59469;DHT22;45277;52.768;18.262;2022-09-13T04:59:07;8.70;99.90
59469;DHT22;45277;52.768;18.262;2022-09-13T05:00:48;8.70;99.90
59469;DHT22;45277;52.768;18.262;2022-09-13T05:02:21;8.80;99.90
59469;DHT22;45277;52.768;18.262;2022-09-13T05:03:55;8.90;99.90
59469;DHT22;45277;52.768;18.262;2022-09-13T05:05:35;9.00;99.90
59469;DHT22;45277;52.768;18.262;2022-09-13T05:07:06;9.10;99.90
59469;DHT22;45277;52.768;18.262;2022-09-13T05:08:39;9.20;99.90
59469;DHT22;45277;52.768;18.262;2022-09-13T05:11:42;9.30;99.90
59469;DHT22;45277;52.768;18.262;2022-09-13T05:13:14;9.40;99.90
59469;DHT22;45277;52.768;18.262;2022-09-13T05:14:48;9.50;99.90
59469;DHT22;45277;52.768;18.262;2022-09-13T05:16:25;9.50;99.90
59469;DHT22;45277;52.768;18.262;2022-09-13T05:17:56;9.60;99.90
59469;DHT22;45277;52.768;18.262;2022-09-13T05:19:28;9.60;99.90
59469;DHT22;45277;52.768;18.262;2022-09-13T05:21:03;9.70;99.90
59469;DHT22;45277;52.768;18.262;2022-09-13T05:22:35;9.80;99.90
59469;DHT22;45277;52.768;18.262;2022-09-13T05:24:08;9.90;99.90
59469;DHT22;45277;52.768;18.262;2022-09-13T05:25:40;9.90;99.90
59469;DHT22;45277;52.768;18.262;2022-09-13T05:27:13;10.00;99.90
59469;DHT22;45277;52.768;18.262;2022-09-13T05:28:46;10.00;99.90
59469;DHT22;45277;52.768;18.262;2022-09-13T05:30:23;10.00;99.90
59469;DHT22;45277;52.768;18.262;2022-09-13T05:31:55;10.10;99.90
59469;DHT22;45277;52.768;18.262;2022-09-13T05:33:29;10.10;99.90
59469;DHT22;45277;52.768;18.262;2022-09-13T05:35:01;10.10;99.90
59469;DHT22;45277;52.768;18.262;2022-09-13T05:36:34;10.10;99.90
59469;DHT22;45277;52.768;18.262;2022-09-13T05:38:06;10.10;99.90
59469;DHT22;45277;52.768;18.262;2022-09-13T05:39:46;10.20;99.90
59469;DHT22;45277;52.768;18.262;2022-09-13T05:41:17;10.20;99.90
59469;DHT22;45277;52.768;18.262;2022-09-13T05:42:55;10.30;99.90
59469;DHT22;45277;52.768;18.262;2022-09-13T05:44:26;10.30;99.90
59469;DHT22;45277;52.768;18.262;2022-09-13T05:46:09;10.40;99.90
59469;DHT22;45277;52.768;18.262;2022-09-13T05:48:00;10.40;99.90
59469;DHT22;45277;52.768;18.262;2022-09-13T05:49:33;10.50;99.90
59469;DHT22;45277;52.768;18.262;2022-09-13T05:51:10;10.50;99.90
59469;DHT22;45277;52.768;18.262;2022-09-13T05:52:43;10.60;99.90
59469;DHT22;45277;52.768;18.262;2022-09-13T05:54:16;10.60;99.90
59469;DHT22;45277;52.768;18.262;2022-09-13T05:55:50;10.60;99.90
59469;DHT22;45277;52.768;18.262;2022-09-13T05:57:22;10.70;99.90
59469;DHT22;45277;52.768;18.262;2022-09-13T05:58:59;10.80;99.90
59469;DHT22;45277;52.768;18.262;2022-09-13T06:00:32;10.80;99.90
59469;DHT22;45277;52.768;18.262;2022-09-13T06:02:05;10.90;99.90
59469;DHT22;45277;52.768;18.262;2022-09-13T06:03:39;10.90;99.90
59469;DHT22;45277;52.768;18.262;2022-09-13T06:05:10;11.00;99.90
59469;DHT22;45277;52.768;18.262;2022-09-13T06:06:48;11.10;99.90
59469;DHT22;45277;52.768;18.262;2022-09-13T06:08:20;11.10;99.90
59469;DHT22;45277;52.768;18.262;2022-09-13T06:09:52;11.20;99.90
59469;DHT22;45277;52.768;18.262;2022-09-13T06:11:24;11.30;99.90
59469;DHT22;45277;52.768;18.262;2022-09-13T06:12:58;11.40;99.90
59469;DHT22;45277;52.768;18.262;2022-09-13T06:14:29;11.40;99.90
59469;DHT22;45277;52.768;18.262;2022-09-13T06:16:03;11.60;99.90
59469;DHT22;45277;52.768;18.262;2022-09-13T06:17:36;11.60;99.90
59469;DHT22;45277;52.768;18.262;2022-09-13T06:19:11;11.70;99.90
59469;DHT22;45277;52.768;18.262;2022-09-13T06:21:17;11.70;99.90
59469;DHT22;45277;52.768;18.262;2022-09-13T06:22:50;11.80;99.90
59469;DHT22;45277;52.768;18.262;2022-09-13T06:24:23;11.80;99.90
59469;DHT22;45277;52.768;18.262;2022-09-13T06:26:10;11.80;99.90
59469;DHT22;45277;52.768;18.262;2022-09-13T06:27:44;11.90;99.90
59469;DHT22;45277;52.768;18.262;2022-09-13T06:29:17;11.90;99.90
59469;DHT22;45277;52.768;18.262;2022-09-13T06:30:49;11.90;99.90
59469;DHT22;45277;52.768;18.262;2022-09-13T06:32:22;12.00;99.90
59469;DHT22;45277;52.768;18.262;2022-09-13T06:33:59;12.10;99.90
59469;DHT22;45277;52.768;18.262;2022-09-13T06:35:31;12.10;99.90
59469;DHT22;45277;52.768;18.262;2022-09-13T06:37:10;12.10;99.90
59469;DHT22;45277;52.768;18.262;2022-09-13T06:38:55;12.20;99.90
59469;DHT22;45277;52.768;18.262;2022-09-13T06:40:27;12.20;99.90
59469;DHT22;45277;52.768;18.262;2022-09-13T06:42:00;12.30;99.90
59469;DHT22;45277;52.768;18.262;2022-09-13T06:43:40;12.30;99.90
59469;DHT22;45277;52.768;18.262;2022-09-13T06:45:12;12.40;99.90
59469;DHT22;45277;52.768;18.262;2022-09-13T06:46:44;12.50;99.90
59469;DHT22;45277;52.768;18.262;2022-09-13T06:48:16;12.50;99.90
59469;DHT22;45277;52.768;18.262;2022-09-13T06:49:50;12.60;99.90
59469;DHT22;45277;52.768;18.262;2022-09-13T06:51:23;12.70;99.90
59469;DHT22;45277;52.768;18.262;2022-09-13T06:52:55;12.80;99.90
59469;DHT22;45277;52.768;18.262;2022-09-13T06:54:30;12.90;99.90
59469;DHT22;45277;52.768;18.262;2022-09-13T06:56:12;13.00;99.90
59469;DHT22;45277;52.768;18.262;2022-09-13T06:57:45;13.10;99.90
59469;DHT22;45277;52.768;18.262;2022-09-13T06:59:16;13.20;99.90
59469;DHT22;45277;52.768;18.262;2022-09-13T07:00:48;13.30;99.90
59469;DHT22;45277;52.768;18.262;2022-09-13T07:02:20;13.40;99.90
59469;DHT22;45277;52.768;18.262;2022-09-13T07:03:57;13.60;99.90
59469;DHT22;45277;52.768;18.262;2022-09-13T07:05:30;13.70;99.90
59469;DHT22;45277;52.768;18.262;2022-09-13T07:07:02;13.90;99.90
59469;DHT22;45277;52.768;18.262;2022-09-13T07:08:34;14.00;99.90
59469;DHT22;45277;52.768;18.262;2022-09-13T07:10:05;14.20;99.90
59469;DHT22;45277;52.768;18.262;2022-09-13T07:11:39;14.40;99.90
59469;DHT22;45277;52.768;18.262;2022-09-13T07:13:13;14.40;99.90
59469;DHT22;45277;52.768;18.262;2022-09-13T07:14:45;14.60;99.90
59469;DHT22;45277;52.768;18.262;2022-09-13T07:16:17;14.60;99.90
59469;DHT22;45277;52.768;18.262;2022-09-13T07:17:49;14.80;99.90
59469;DHT22;45277;52.768;18.262;2022-09-13T07:19:23;14.90;99.90
59469;DHT22;45277;52.768;18.262;2022-09-13T07:20:59;15.10;99.90
59469;DHT22;45277;52.768;18.262;2022-09-13T07:22:32;15.20;99.90
59469;DHT22;45277;52.768;18.262;2022-09-13T07:24:04;15.40;99.90
59469;DHT22;45277;52.768;18.262;2022-09-13T07:25:36;15.40;99.90
59469;DHT22;45277;52.768;18.262;2022-09-13T07:27:08;15.40;99.90
59469;DHT22;45277;52.768;18.262;2022-09-13T07:28:45;15.40;99.90
59469;DHT22;45277;52.768;18.262;2022-09-13T07:30:17;15.40;99.90
59469;DHT22;45277;52.768;18.262;2022-09-13T07:31:53;15.50;99.90
59469;DHT22;45277;52.768;18.262;2022-09-13T07:33:25;15.40;99.90
59469;DHT22;45277;52.768;18.262;2022-09-13T07:34:56;15.40;99.90
59469;DHT22;45277;52.768;18.262;2022-09-13T07:36:29;15.40;99.90
59469;DHT22;45277;52.768;18.262;2022-09-13T07:38:02;15.60;99.90
59469;DHT22;45277;52.768;18.262;2022-09-13T07:39:35;15.60;99.90
59469;DHT22;45277;52.768;18.262;2022-09-13T07:41:13;15.90;99.90
59469;DHT22;45277;52.768;18.262;2022-09-13T07:42:45;15.90;99.90
59469;DHT22;45277;52.768;18.262;2022-09-13T07:44:18;16.10;99.90
59469;DHT22;45277;52.768;18.262;2022-09-13T07:47:32;16.40;99.90
59469;DHT22;45277;52.768;18.262;2022-09-13T07:49:04;16.60;99.90
59469;DHT22;45277;52.768;18.262;2022-09-13T07:50:38;16.80;99.90
59469;DHT22;45277;52.768;18.262;2022-09-13T07:52:10;17.00;99.90
59469;DHT22;45277;52.768;18.262;2022-09-13T07:53:45;17.20;99.90
59469;DHT22;45277;52.768;18.262;2022-09-13T07:55:16;17.30;99.90
59469;DHT22;45277;52.768;18.262;2022-09-13T07:56:55;17.00;99.90
59469;DHT22;45277;52.768;18.262;2022-09-13T07:58:26;17.20;99.90
59469;DHT22;45277;52.768;18.262;2022-09-13T07:59:58;17.30;99.90
59469;DHT22;45277;52.768;18.262;2022-09-13T08:01:39;17.20;99.90
59469;DHT22;45277;52.768;18.262;2022-09-13T08:03:11;17.30;99.90
59469;DHT22;45277;52.768;18.262;2022-09-13T08:04:43;17.10;99.90
59469;DHT22;45277;52.768;18.262;2022-09-13T08:06:16;17.10;99.90
59469;DHT22;45277;52.768;18.262;2022-09-13T08:07:48;17.20;99.90
59469;DHT22;45277;52.768;18.262;2022-09-13T08:09:21;17.20;99.90
59469;DHT22;45277;52.768;18.262;2022-09-13T08:10:53;17.20;99.90
59469;DHT22;45277;52.768;18.262;2022-09-13T08:12:25;17.20;99.90
59469;DHT22;45277;52.768;18.262;2022-09-13T08:13:59;17.20;99.90
59469;DHT22;45277;52.768;18.262;2022-09-13T08:15:34;17.20;99.90
59469;DHT22;45277;52.768;18.262;2022-09-13T08:17:07;17.20;99.90
59469;DHT22;45277;52.768;18.262;2022-09-13T08:18:46;17.30;99.90
59469;DHT22;45277;52.768;18.262;2022-09-13T08:20:20;17.40;99.90
59469;DHT22;45277;52.768;18.262;2022-09-13T08:21:59;17.40;99.90
59469;DHT22;45277;52.768;18.262;2022-09-13T08:23:34;17.60;99.90
59469;DHT22;45277;52.768;18.262;2022-09-13T08:25:06;17.60;99.90
59469;DHT22;45277;52.768;18.262;2022-09-13T08:26:38;17.60;99.90
59469;DHT22;45277;52.768;18.262;2022-09-13T08:28:15;17.70;99.90
59469;DHT22;45277;52.768;18.262;2022-09-13T08:29:48;17.60;99.90
59469;DHT22;45277;52.768;18.262;2022-09-13T08:31:30;17.60;99.90
59469;DHT22;45277;52.768;18.262;2022-09-13T08:33:03;17.60;99.90
59469;DHT22;45277;52.768;18.262;2022-09-13T08:34:36;17.70;99.90
59469;DHT22;45277;52.768;18.262;2022-09-13T08:36:08;17.80;99.90
59469;DHT22;45277;52.768;18.262;2022-09-13T08:37:40;17.80;99.90
59469;DHT22;45277;52.768;18.262;2022-09-13T08:39:13;18.00;99.90
59469;DHT22;45277;52.768;18.262;2022-09-13T08:40:52;18.00;99.90
59469;DHT22;45277;52.768;18.262;2022-09-13T08:42:38;18.10;99.90
59469;DHT22;45277;52.768;18.262;2022-09-13T08:44:33;18.30;99.90
59469;DHT22;45277;52.768;18.262;2022-09-13T08:46:33;18.50;99.90
59469;DHT22;45277;52.768;18.262;2022-09-13T08:48:13;18.60;99.90
59469;DHT22;45277;52.768;18.262;2022-09-13T08:49:50;18.90;99.90
59469;DHT22;45277;52.768;18.262;2022-09-13T08:51:44;19.00;99.90
59469;DHT22;45277;52.768;18.262;2022-09-13T08:53:27;19.20;99.90
59469;DHT22;45277;52.768;18.262;2022-09-13T08:55:14;19.30;99.90
59469;DHT22;45277;52.768;18.262;2022-09-13T09:00:29;18.80;99.90
59469;DHT22;45277;52.768;18.262;2022-09-13T09:04:20;18.90;99.90
59469;DHT22;45277;52.768;18.262;2022-09-13T09:05:57;19.00;99.90
59469;DHT22;45277;52.768;18.262;2022-09-13T09:08:03;19.40;99.90
59469;DHT22;45277;52.768;18.262;2022-09-13T09:09:40;19.50;99.90
59469;DHT22;45277;52.768;18.262;2022-09-13T09:15:08;19.40;99.90
59469;DHT22;45277;52.768;18.262;2022-09-13T09:16:50;19.40;99.90
59469;DHT22;45277;52.768;18.262;2022-09-13T09:18:31;19.50;99.90
59469;DHT22;45277;52.768;18.262;2022-09-13T09:20:28;19.60;99.90
59469;DHT22;45277;52.768;18.262;2022-09-13T09:22:24;19.50;99.90
59469;DHT22;45277;52.768;18.262;2022-09-13T09:24:01;19.40;99.90
59469;DHT22;45277;52.768;18.262;2022-09-13T09:25:36;19.30;99.90
59469;DHT22;45277;52.768;18.262;2022-09-13T09:27:30;19.70;99.90
59469;DHT22;45277;52.768;18.262;2022-09-13T09:29:30;19.60;99.90
59469;DHT22;45277;52.768;18.262;2022-09-13T09:33:38;19.90;99.90
59469;DHT22;45277;52.768;18.262;2022-09-13T09:35:33;20.10;99.90
59469;DHT22;45277;52.768;18.262;2022-09-13T09:37:28;20.30;99.90
59469;DHT22;45277;52.768;18.262;2022-09-13T09:39:06;20.50;99.50
59469;DHT22;45277;52.768;18.262;2022-09-13T09:40:41;20.40;93.30
59469;DHT22;45277;52.768;18.262;2022-09-13T09:42:22;20.50;92.10
59469;DHT22;45277;52.768;18.262;2022-09-13T09:44:03;20.30;89.10
59469;DHT22;45277;52.768;18.262;2022-09-13T09:45:37;20.10;78.40
59469;DHT22;45277;52.768;18.262;2022-09-13T09:47:21;20.10;80.30
59469;DHT22;45277;52.768;18.262;2022-09-13T09:49:06;20.10;96.80
59469;DHT22;45277;52.768;18.262;2022-09-13T09:51:03;20.30;78.90
59469;DHT22;45277;52.768;18.262;2022-09-13T09:54:29;19.80;99.90
59469;DHT22;45277;52.768;18.262;2022-09-13T09:56:17;19.70;99.90
59469;DHT22;45277;52.768;18.262;2022-09-13T09:58:02;19.40;99.90
59469;DHT22;45277;52.768;18.262;2022-09-13T09:59:39;19.20;99.90
59469;DHT22;45277;52.768;18.262;2022-09-13T10:03:13;19.20;99.90
59469;DHT22;45277;52.768;18.262;2022-09-13T10:04:58;19.00;99.90
59469;DHT22;45277;52.768;18.262;2022-09-13T10:06:34;19.00;99.90
59469;DHT22;45277;52.768;18.262;2022-09-13T10:08:11;19.10;99.90
59469;DHT22;45277;52.768;18.262;2022-09-13T10:10:05;19.00;99.90
59469;DHT22;45277;52.768;18.262;2022-09-13T10:11:50;19.00;99.90
59469;DHT22;45277;52.768;18.262;2022-09-13T10:13:24;18.90;99.90
59469;DHT22;45277;52.768;18.262;2022-09-13T10:15:09;18.80;99.90
59469;DHT22;45277;52.768;18.262;2022-09-13T10:16:45;18.80;99.90
59469;DHT22;45277;52.768;18.262;2022-09-13T10:18:30;18.80;99.90
59469;DHT22;45277;52.768;18.262;2022-09-13T10:20:19;18.80;99.90
59469;DHT22;45277;52.768;18.262;2022-09-13T10:22:10;18.80;99.90
59469;DHT22;45277;52.768;18.262;2022-09-13T10:23:43;18.90;99.90
59469;DHT22;45277;52.768;18.262;2022-09-13T10:25:25;18.90;99.90
59469;DHT22;45277;52.768;18.262;2022-09-13T10:26:59;19.00;99.90
59469;DHT22;45277;52.768;18.262;2022-09-13T10:28:43;19.10;99.90
59469;DHT22;45277;52.768;18.262;2022-09-13T10:32:27;19.40;99.90
59469;DHT22;45277;52.768;18.262;2022-09-13T10:34:02;19.60;99.90
59469;DHT22;45277;52.768;18.262;2022-09-13T10:35:37;19.60;99.90
59469;DHT22;45277;52.768;18.262;2022-09-13T10:37:16;19.60;99.90
59469;DHT22;45277;52.768;18.262;2022-09-13T10:39:03;19.60;99.90
59469;DHT22;45277;52.768;18.262;2022-09-13T10:40:36;19.40;99.90
59469;DHT22;45277;52.768;18.262;2022-09-13T10:42:09;19.40;98.60
59469;DHT22;45277;52.768;18.262;2022-09-13T10:43:41;19.50;96.80
59469;DHT22;45277;52.768;18.262;2022-09-13T10:45:24;19.60;97.30
59469;DHT22;45277;52.768;18.262;2022-09-13T10:47:03;19.70;93.80
59469;DHT22;45277;52.768;18.262;2022-09-13T10:48:47;19.60;93.50
59469;DHT22;45277;52.768;18.262;2022-09-13T10:50:28;19.70;92.00
59469;DHT22;45277;52.768;18.262;2022-09-13T10:52:26;19.70;94.20
59469;DHT22;45277;52.768;18.262;2022-09-13T10:54:18;19.50;97.40
59469;DHT22;45277;52.768;18.262;2022-09-13T10:56:00;19.60;98.40
59469;DHT22;45277;52.768;18.262;2022-09-13T10:57:35;19.70;99.00
59469;DHT22;45277;52.768;18.262;2022-09-13T10:59:29;19.80;98.50
59469;DHT22;45277;52.768;18.262;2022-09-13T11:01:38;19.90;92.10
59469;DHT22;45277;52.768;18.262;2022-09-13T11:03:36;20.10;91.40
59469;DHT22;45277;52.768;18.262;2022-09-13T11:05:53;20.30;96.70
59469;DHT22;45277;52.768;18.262;2022-09-13T11:14:48;20.40;85.60
59469;DHT22;45277;52.768;18.262;2022-09-13T11:22:34;20.80;85.80
59469;DHT22;45277;52.768;18.262;2022-09-13T11:26:53;21.30;55.90
59469;DHT22;45277;52.768;18.262;2022-09-13T11:28:33;21.10;63.00
59469;DHT22;45277;52.768;18.262;2022-09-13T11:30:23;20.90;71.70
59469;DHT22;45277;52.768;18.262;2022-09-13T11:42:48;20.60;88.30
59469;DHT22;45277;52.768;18.262;2022-09-13T11:44:35;20.50;90.00
59469;DHT22;45277;52.768;18.262;2022-09-13T11:46:41;20.50;92.30
59469;DHT22;45277;52.768;18.262;2022-09-13T11:56:15;20.20;82.80
59469;DHT22;45277;52.768;18.262;2022-09-13T11:58:01;20.10;89.70
59469;DHT22;45277;52.768;18.262;2022-09-13T11:59:46;20.00;90.60